createdAt,value
2019-03-03T00:00:30.371Z,7.87
2019-03-03T00:02:59.119Z,7.87
2019-03-03T00:05:28.706Z,7.81
2019-03-03T00:07:57.538Z,7.79
2019-03-03T00:10:26.203Z,7.79
2019-03-03T00:12:54.953Z,7.83
2019-03-03T00:15:23.535Z,7.83
2019-03-03T00:17:52.277Z,7.79
2019-03-03T00:20:20.907Z,7.80
2019-03-03T00:22:49.569Z,7.80
2019-03-03T00:25:18.277Z,7.78
2019-03-03T00:27:46.847Z,7.78
2019-03-03T00:30:19.376Z,7.78
2019-03-03T00:32:48.061Z,7.77
2019-03-03T00:35:17.096Z,7.75
2019-03-03T00:38:03.437Z,7.75
2019-03-03T00:40:39.423Z,7.74
2019-03-03T00:43:18.711Z,7.67
2019-03-03T00:45:58.157Z,7.67
2019-03-03T00:48:31.397Z,7.69
2019-03-03T00:51:10.952Z,7.69
2019-03-03T00:53:47.272Z,7.65
2019-03-03T00:56:32.538Z,7.65
2019-03-03T00:59:05.596Z,7.61
2019-03-03T01:01:35.815Z,7.56
2019-03-03T01:04:06.101Z,7.55
2019-03-03T01:06:39.571Z,7.55
2019-03-03T01:09:26.959Z,7.53
2019-03-03T01:11:58.352Z,7.54
2019-03-03T01:14:31.351Z,7.50
2019-03-03T01:17:01.483Z,7.56
2019-03-03T01:19:31.793Z,7.56
2019-03-03T01:22:18.192Z,7.55
2019-03-03T01:24:51.184Z,7.56
2019-03-03T01:27:19.745Z,7.55
2019-03-03T01:29:48.390Z,7.56
2019-03-03T01:32:17.102Z,7.53
2019-03-03T01:34:45.728Z,7.51
2019-03-03T01:37:14.297Z,7.52
2019-03-03T01:39:42.822Z,7.56
2019-03-03T01:42:11.446Z,7.54
2019-03-03T01:44:40.074Z,7.56
2019-03-03T01:47:08.811Z,7.50
2019-03-03T01:49:37.492Z,7.50
2019-03-03T01:52:06.293Z,7.54
2019-03-03T01:54:34.888Z,7.56
2019-03-03T01:57:03.533Z,7.56
2019-03-03T01:59:32.093Z,7.54
2019-03-03T02:02:00.779Z,7.53
2019-03-03T02:04:29.333Z,7.53
2019-03-03T02:06:58.030Z,7.55
2019-03-03T02:09:26.794Z,7.54
2019-03-03T02:11:55.416Z,7.53
2019-03-03T02:14:23.976Z,7.49
2019-03-03T02:16:52.660Z,7.44
2019-03-03T02:19:21.289Z,7.45
2019-03-03T02:21:49.936Z,7.45
2019-03-03T02:24:18.792Z,7.46
2019-03-03T02:26:47.441Z,7.45
2019-03-03T02:29:16.145Z,7.41
2019-03-03T02:31:44.816Z,7.33
2019-03-03T02:34:13.380Z,7.40
2019-03-03T02:36:42.012Z,7.37
2019-03-03T02:39:13.343Z,7.37
2019-03-03T02:41:42.061Z,7.32
2019-03-03T02:44:10.639Z,7.37
2019-03-03T02:46:39.300Z,7.38
2019-03-03T02:49:08.004Z,7.37
2019-03-03T02:51:36.688Z,7.35
2019-03-03T02:54:05.658Z,7.29
2019-03-03T02:56:34.285Z,7.26
2019-03-03T02:59:02.826Z,7.19
2019-03-03T03:01:35.778Z,7.22
2019-03-03T03:04:04.494Z,7.11
2019-03-03T03:06:37.277Z,7.11
2019-03-03T03:09:14.822Z,7.09
2019-03-03T03:11:54.089Z,7.06
2019-03-03T03:14:42.397Z,7.06
2019-03-03T03:17:15.508Z,7.08
2019-03-03T03:19:48.750Z,7.08
2019-03-03T03:22:19.001Z,7.05
2019-03-03T03:24:49.191Z,7.04
2019-03-03T03:27:25.501Z,7.01
2019-03-03T03:30:04.672Z,7.03
2019-03-03T03:32:53.154Z,7.03
2019-03-03T03:35:39.771Z,7.03
2019-03-03T03:38:12.912Z,6.99
2019-03-03T03:40:43.180Z,6.94
2019-03-03T03:43:19.462Z,6.92
2019-03-03T03:45:55.735Z,6.91
2019-03-03T03:48:42.080Z,6.89
2019-03-03T03:51:15.022Z,6.84
2019-03-03T03:53:45.837Z,6.85
2019-03-03T03:56:22.190Z,6.82
2019-03-03T03:58:52.485Z,6.79
2019-03-03T04:01:38.750Z,6.79
2019-03-03T04:04:17.920Z,6.79
2019-03-03T04:07:03.264Z,6.78
2019-03-03T04:09:42.214Z,6.78
2019-03-03T04:12:28.552Z,6.80
2019-03-03T04:15:11.118Z,6.82
2019-03-03T04:17:53.206Z,6.81
2019-03-03T04:20:23.458Z,6.77
2019-03-03T04:22:53.651Z,6.72
2019-03-03T04:25:26.657Z,6.72
2019-03-03T04:27:56.986Z,6.70
2019-03-03T04:30:28.075Z,6.68
2019-03-03T04:33:00.859Z,6.66
2019-03-03T04:35:33.695Z,6.68
2019-03-03T04:38:06.537Z,6.68
2019-03-03T04:40:39.638Z,6.70
2019-03-03T04:43:12.595Z,6.73
2019-03-03T04:45:48.958Z,6.71
2019-03-03T04:48:24.996Z,6.73
2019-03-03T04:51:04.271Z,6.73
2019-03-03T04:53:34.406Z,6.63
2019-03-03T04:56:22.844Z,6.71
2019-03-03T04:58:55.871Z,6.69
2019-03-03T05:01:34.733Z,6.68
2019-03-03T05:04:21.277Z,6.71
2019-03-03T05:06:54.147Z,6.71
2019-03-03T05:09:42.506Z,6.69
2019-03-03T05:12:29.823Z,6.69
2019-03-03T05:15:08.905Z,6.65
2019-03-03T05:17:44.649Z,6.67
2019-03-03T05:20:15.155Z,6.70
2019-03-03T05:22:43.643Z,6.69
2019-03-03T05:25:12.300Z,6.67
2019-03-03T05:27:40.938Z,6.69
2019-03-03T05:30:13.995Z,6.70
2019-03-03T05:32:42.651Z,6.75
2019-03-03T05:35:11.572Z,6.75
2019-03-03T05:37:40.193Z,6.71
2019-03-03T05:40:09.150Z,6.72
2019-03-03T05:42:37.843Z,6.79
2019-03-03T05:45:07.181Z,6.79
2019-03-03T05:47:35.861Z,6.82
2019-03-03T05:50:06.044Z,6.82
2019-03-03T05:52:34.678Z,6.84
2019-03-03T05:55:03.346Z,6.88
2019-03-03T05:57:31.843Z,6.88
2019-03-03T06:00:00.354Z,6.87
2019-03-03T06:02:29.008Z,6.84
2019-03-03T06:04:57.565Z,6.84
2019-03-03T06:07:26.208Z,6.67
2019-03-03T06:09:54.806Z,6.67
2019-03-03T06:12:23.438Z,6.70
2019-03-03T06:14:51.902Z,6.68
2019-03-03T06:17:20.490Z,6.66
2019-03-03T06:19:49.062Z,6.75
2019-03-03T06:22:17.902Z,6.80
2019-03-03T06:24:46.490Z,6.86
2019-03-03T06:27:15.088Z,6.88
2019-03-03T06:29:43.577Z,6.86
2019-03-03T06:32:12.181Z,6.86
2019-03-03T06:34:40.832Z,6.79
2019-03-03T06:37:09.495Z,6.84
2019-03-03T06:39:38.151Z,6.88
2019-03-03T06:42:06.878Z,6.94
2019-03-03T06:44:35.444Z,6.95
2019-03-03T06:47:04.105Z,7.06
2019-03-03T06:49:32.732Z,7.14
2019-03-03T06:52:01.294Z,7.15
2019-03-03T06:54:29.876Z,7.18
2019-03-03T06:56:58.416Z,7.23
2019-03-03T06:59:26.907Z,7.26
2019-03-03T07:01:55.631Z,7.22
2019-03-03T07:04:24.269Z,7.22
2019-03-03T07:06:52.753Z,7.26
2019-03-03T07:09:21.357Z,7.26
2019-03-03T07:11:49.981Z,7.44
2019-03-03T07:14:18.453Z,7.46
2019-03-03T07:16:47.062Z,7.63
2019-03-03T07:19:15.731Z,7.63
2019-03-03T07:21:44.343Z,7.75
2019-03-03T07:24:13.009Z,7.84
2019-03-03T07:26:41.490Z,7.81
2019-03-03T07:29:10.045Z,7.94
2019-03-03T07:31:38.636Z,7.94
2019-03-03T07:34:07.203Z,8.05
2019-03-03T07:36:35.785Z,8.05
2019-03-03T07:39:07.376Z,7.97
2019-03-03T07:41:36.324Z,7.90
2019-03-03T07:44:04.934Z,8.07
2019-03-03T07:46:33.526Z,8.10
2019-03-03T07:49:02.476Z,8.18
2019-03-03T07:51:31.031Z,8.15
2019-03-03T07:53:59.647Z,8.13
2019-03-03T07:56:28.283Z,8.01
2019-03-03T07:58:57.182Z,8.05
2019-03-03T08:01:25.712Z,8.18
2019-03-03T08:03:54.349Z,8.27
2019-03-03T08:06:22.940Z,8.35
2019-03-03T08:08:51.626Z,8.43
2019-03-03T08:11:20.319Z,8.48
2019-03-03T08:13:49.065Z,8.56
2019-03-03T08:16:17.716Z,8.68
2019-03-03T08:18:46.218Z,8.81
2019-03-03T08:21:14.780Z,8.77
2019-03-03T08:23:43.360Z,8.75
2019-03-03T08:26:12.005Z,8.78
2019-03-03T08:28:40.649Z,8.94
2019-03-03T08:31:09.173Z,8.88
2019-03-03T08:33:37.732Z,8.89
2019-03-03T08:36:06.320Z,8.78
2019-03-03T08:38:34.927Z,8.89
2019-03-03T08:41:03.478Z,9.14
2019-03-03T08:43:33.680Z,9.07
2019-03-03T08:46:12.748Z,9.05
2019-03-03T08:48:54.780Z,9.22
2019-03-03T08:51:28.058Z,9.32
2019-03-03T08:54:04.029Z,9.40
2019-03-03T08:56:43.425Z,9.24
2019-03-03T08:59:13.612Z,9.24
2019-03-03T09:01:46.613Z,9.19
2019-03-03T09:04:35.415Z,9.21
2019-03-03T09:07:08.425Z,9.19
2019-03-03T09:09:54.879Z,9.26
2019-03-03T09:12:25.079Z,9.30
2019-03-03T09:14:55.343Z,9.37
2019-03-03T09:17:28.474Z,9.40
2019-03-03T09:20:01.486Z,9.32
2019-03-03T09:22:31.666Z,9.28
2019-03-03T09:25:11.042Z,9.33
2019-03-03T09:27:59.710Z,9.38
2019-03-03T09:30:32.587Z,9.38
2019-03-03T09:33:02.851Z,9.23
2019-03-03T09:35:33.112Z,9.06
2019-03-03T09:38:18.520Z,9.11
2019-03-03T09:40:48.736Z,9.05
2019-03-03T09:43:35.229Z,8.96
2019-03-03T09:46:05.521Z,8.80
2019-03-03T09:48:52.042Z,8.82
2019-03-03T09:51:25.118Z,8.81
2019-03-03T09:53:58.256Z,8.93
2019-03-03T09:56:28.558Z,8.98
2019-03-03T09:59:01.813Z,9.08
2019-03-03T10:01:48.598Z,9.01
2019-03-03T10:04:36.947Z,9.01
2019-03-03T10:07:07.277Z,9.02
2019-03-03T10:09:51.441Z,9.07
2019-03-03T10:12:27.545Z,9.06
2019-03-03T10:15:14.088Z,9.05
2019-03-03T10:17:50.078Z,9.10
2019-03-03T10:20:36.628Z,9.10
2019-03-03T10:23:09.875Z,9.21
2019-03-03T10:25:52.427Z,9.27
2019-03-03T10:28:38.011Z,9.43
2019-03-03T10:31:08.283Z,9.39
2019-03-03T10:33:38.645Z,9.48
2019-03-03T10:36:11.499Z,9.54
2019-03-03T10:38:53.826Z,9.68
2019-03-03T10:41:27.776Z,9.74
2019-03-03T10:44:15.814Z,9.87
2019-03-03T10:47:02.025Z,9.90
2019-03-03T10:49:38.137Z,10.08
2019-03-03T10:52:12.274Z,10.16
2019-03-03T10:54:42.594Z,10.22
2019-03-03T10:57:30.417Z,10.23
2019-03-03T11:00:01.030Z,10.38
2019-03-03T11:02:37.158Z,10.52
2019-03-03T11:05:19.701Z,10.48
2019-03-03T11:07:50.230Z,10.39
2019-03-03T11:10:20.546Z,10.51
2019-03-03T11:12:50.792Z,10.68
2019-03-03T11:15:37.654Z,10.85
2019-03-03T11:18:14.142Z,10.81
2019-03-03T11:21:00.731Z,10.77
2019-03-03T11:23:31.358Z,10.68
2019-03-03T11:26:20.813Z,10.86
2019-03-03T11:28:53.881Z,11.05
2019-03-03T11:31:24.160Z,11.17
2019-03-03T11:34:09.628Z,11.28
2019-03-03T11:36:42.702Z,11.36
2019-03-03T11:39:16.299Z,11.52
2019-03-03T11:41:55.919Z,11.71
2019-03-03T11:44:26.381Z,11.73
2019-03-03T11:46:59.440Z,11.75
2019-03-03T11:49:32.444Z,11.77
2019-03-03T11:52:05.336Z,11.84
2019-03-03T11:54:35.869Z,11.96
2019-03-03T11:57:11.894Z,12.11
2019-03-03T11:59:45.019Z,12.27
2019-03-03T12:02:15.313Z,12.43
2019-03-03T12:05:01.863Z,12.43
2019-03-03T12:07:44.634Z,12.35
2019-03-03T12:10:31.306Z,11.84
2019-03-03T12:13:17.612Z,11.70
2019-03-03T12:16:04.179Z,11.89
2019-03-03T12:18:40.454Z,12.08
2019-03-03T12:21:10.773Z,12.09
2019-03-03T12:23:50.114Z,12.09
2019-03-03T12:26:23.176Z,12.39
2019-03-03T12:28:59.905Z,12.55
2019-03-03T12:31:39.481Z,12.83
2019-03-03T12:34:21.864Z,12.67
2019-03-03T12:36:54.123Z,12.58
2019-03-03T12:39:40.314Z,12.89
2019-03-03T12:42:10.622Z,13.23
2019-03-03T12:44:46.418Z,13.46
2019-03-03T12:47:16.740Z,13.25
2019-03-03T12:49:53.129Z,13.13
2019-03-03T12:52:26.552Z,13.22
2019-03-03T12:54:56.677Z,13.19
2019-03-03T12:57:45.223Z,13.52
2019-03-03T13:00:31.902Z,13.63
2019-03-03T13:03:02.194Z,14.09
2019-03-03T13:05:32.477Z,15.32
2019-03-03T13:08:02.780Z,15.78
2019-03-03T13:10:42.003Z,16.42
2019-03-03T13:13:12.445Z,17.29
2019-03-03T13:15:59.141Z,17.40
2019-03-03T13:18:29.478Z,17.78
2019-03-03T13:21:16.225Z,17.64
2019-03-03T13:23:52.572Z,18.13
2019-03-03T13:26:22.926Z,18.48
2019-03-03T13:29:02.214Z,18.23
2019-03-03T13:31:48.700Z,17.79
2019-03-03T13:34:28.061Z,18.94
2019-03-03T13:37:00.923Z,19.66
2019-03-03T13:39:34.654Z,19.57
2019-03-03T13:42:21.282Z,19.74
2019-03-03T13:44:49.929Z,19.42
2019-03-03T13:47:18.618Z,20.56
2019-03-03T13:49:47.489Z,21.48
2019-03-03T13:52:16.335Z,21.88
2019-03-03T13:54:45.072Z,22.07
2019-03-03T13:57:13.828Z,22.35
2019-03-03T13:59:42.471Z,22.94
2019-03-03T14:02:11.302Z,23.54
2019-03-03T14:04:40.218Z,22.84
2019-03-03T14:07:09.228Z,22.72
2019-03-03T14:09:37.996Z,22.52
2019-03-03T14:12:06.819Z,22.41
2019-03-03T14:14:35.589Z,21.20
2019-03-03T14:17:04.493Z,21.53
2019-03-03T14:19:33.159Z,20.93
2019-03-03T14:22:01.807Z,20.96
2019-03-03T14:24:30.387Z,20.52
2019-03-03T14:26:59.682Z,18.89
2019-03-03T14:29:28.299Z,17.81
2019-03-03T14:31:56.993Z,16.61
2019-03-03T14:34:25.734Z,15.91
2019-03-03T14:36:54.378Z,15.80
2019-03-03T14:39:23.471Z,16.12
2019-03-03T14:41:52.164Z,16.38
2019-03-03T14:44:20.874Z,16.25
2019-03-03T14:46:49.514Z,16.17
2019-03-03T14:49:18.384Z,15.54
2019-03-03T14:51:47.094Z,15.38
2019-03-03T14:54:15.738Z,15.34
2019-03-03T14:56:44.419Z,15.49
2019-03-03T14:59:13.111Z,15.74
2019-03-03T15:01:41.764Z,15.92
2019-03-03T15:04:10.359Z,15.95
2019-03-03T15:06:39.002Z,16.01
2019-03-03T15:09:09.413Z,15.99
2019-03-03T15:11:38.074Z,16.00
2019-03-03T15:14:06.810Z,15.85
2019-03-03T15:16:35.911Z,15.40
2019-03-03T15:19:04.628Z,15.19
2019-03-03T15:21:33.296Z,15.38
2019-03-03T15:24:03.664Z,15.26
2019-03-03T15:26:32.510Z,15.12
2019-03-03T15:29:01.069Z,15.08
2019-03-03T15:31:37.450Z,15.09
2019-03-03T15:34:00.464Z,15.00
2019-03-03T15:36:29.373Z,14.71
2019-03-03T15:38:58.087Z,14.60
2019-03-03T15:41:26.982Z,14.39
2019-03-03T15:43:58.632Z,14.07
2019-03-03T15:46:27.335Z,14.09
2019-03-03T15:48:56.094Z,14.03
2019-03-03T15:51:24.845Z,14.04
2019-03-03T15:53:53.506Z,13.89
2019-03-03T15:56:22.202Z,13.57
2019-03-03T15:58:55.556Z,13.36
2019-03-03T16:01:22.860Z,13.15
2019-03-03T16:03:51.638Z,12.98
2019-03-03T16:06:23.403Z,13.16
2019-03-03T16:08:51.968Z,13.51
2019-03-03T16:11:20.689Z,13.21
2019-03-03T16:13:50.803Z,12.81
2019-03-03T16:16:19.469Z,12.55
2019-03-03T16:18:49.339Z,12.32
2019-03-03T16:21:18.222Z,12.13
2019-03-03T16:23:46.884Z,12.05
2019-03-03T16:26:15.700Z,11.89
2019-03-03T16:28:44.334Z,11.83
2019-03-03T16:31:12.989Z,11.74
2019-03-03T16:33:41.612Z,11.68
2019-03-03T16:36:10.291Z,11.57
2019-03-03T16:38:38.943Z,11.49
2019-03-03T16:41:07.642Z,11.44
2019-03-03T16:43:36.226Z,11.32
2019-03-03T16:46:05.253Z,11.22
2019-03-03T16:48:33.891Z,11.14
2019-03-03T16:51:03.454Z,11.02
2019-03-03T16:53:32.110Z,10.94
2019-03-03T16:56:00.788Z,10.84
2019-03-03T16:58:29.342Z,10.79
2019-03-03T17:00:58.188Z,10.71
2019-03-03T17:03:26.943Z,10.59
2019-03-03T17:05:55.650Z,10.57
2019-03-03T17:08:24.291Z,10.47
2019-03-03T17:10:53.142Z,10.41
2019-03-03T17:13:21.868Z,10.34
2019-03-03T17:15:50.492Z,10.27
2019-03-03T17:18:19.168Z,10.24
2019-03-03T17:20:50.436Z,10.15
2019-03-03T17:23:19.133Z,10.11
2019-03-03T17:25:47.916Z,10.10
2019-03-03T17:28:16.567Z,10.08
2019-03-03T17:30:45.296Z,10.01
2019-03-03T17:33:13.972Z,9.99
2019-03-03T17:35:42.626Z,9.96
2019-03-03T17:38:11.286Z,9.94
2019-03-03T17:40:40.778Z,9.90
2019-03-03T17:43:09.438Z,9.85
2019-03-03T17:45:38.124Z,9.79
2019-03-03T17:48:06.792Z,9.80
2019-03-03T17:50:35.485Z,9.76
2019-03-03T17:53:04.153Z,9.72
2019-03-03T17:55:32.838Z,9.68
2019-03-03T17:58:01.512Z,9.62
2019-03-03T18:00:34.376Z,9.60
2019-03-03T18:03:03.357Z,9.55
2019-03-03T18:05:32.124Z,9.50
2019-03-03T18:08:02.182Z,9.47
2019-03-03T18:10:30.844Z,9.44
2019-03-03T18:12:59.562Z,9.37
2019-03-03T18:15:28.382Z,9.32
2019-03-03T18:17:57.107Z,9.30
2019-03-03T18:20:25.796Z,9.26
2019-03-03T18:22:54.443Z,9.22
2019-03-03T18:25:23.232Z,9.17
2019-03-03T18:27:51.875Z,9.21
2019-03-03T18:30:28.916Z,9.17
2019-03-03T18:32:58.831Z,9.14
2019-03-03T18:35:27.719Z,9.14
2019-03-03T18:37:56.538Z,9.10
2019-03-03T18:40:26.390Z,9.07
2019-03-03T18:42:55.116Z,9.02
2019-03-03T18:45:24.498Z,8.96
2019-03-03T18:47:53.242Z,8.95
2019-03-03T18:50:27.778Z,8.89
2019-03-03T18:52:56.822Z,8.87
2019-03-03T18:55:25.601Z,8.85
2019-03-03T18:57:54.243Z,8.84
2019-03-03T19:00:30.683Z,8.80
2019-03-03T19:02:59.961Z,8.78
2019-03-03T19:05:29.553Z,8.76
2019-03-03T19:07:58.277Z,8.72
2019-03-03T19:10:34.710Z,8.67
2019-03-03T19:13:04.889Z,8.66
2019-03-03T19:15:33.703Z,8.65
2019-03-03T19:18:02.555Z,8.65
2019-03-03T19:20:31.738Z,8.65
2019-03-03T19:23:00.460Z,8.65
2019-03-03T19:25:29.131Z,8.64
2019-03-03T19:27:57.797Z,8.64
2019-03-03T19:30:30.212Z,8.62
2019-03-03T19:33:10.790Z,8.62
2019-03-03T19:35:40.218Z,8.65
2019-03-03T19:38:09.212Z,8.62
2019-03-03T19:40:37.907Z,8.57
2019-03-03T19:43:06.540Z,8.61
2019-03-03T19:45:43.558Z,8.60
2019-03-03T19:48:12.223Z,8.57
2019-03-03T19:50:40.940Z,8.51
2019-03-03T19:53:09.833Z,8.47
2019-03-03T19:55:38.745Z,8.47
2019-03-03T19:58:07.937Z,8.43
2019-03-03T20:00:41.197Z,8.38
2019-03-03T20:03:10.149Z,8.33
2019-03-03T20:05:39.642Z,8.30
2019-03-03T20:08:08.751Z,8.27
2019-03-03T20:10:38.059Z,8.25
2019-03-03T20:13:08.884Z,8.27
2019-03-03T20:15:38.261Z,8.35
2019-03-03T20:18:09.601Z,8.37
2019-03-03T20:20:39.199Z,8.36
2019-03-03T20:23:08.382Z,8.34
2019-03-03T20:25:36.992Z,8.33
2019-03-03T20:28:06.032Z,8.34
2019-03-03T20:30:35.183Z,8.34
2019-03-03T20:33:04.267Z,8.34
2019-03-03T20:35:32.926Z,8.30
2019-03-03T20:38:01.733Z,8.30
2019-03-03T20:40:30.672Z,8.31
2019-03-03T20:42:59.533Z,8.30
2019-03-03T20:45:29.516Z,8.30
2019-03-03T20:47:58.420Z,8.33
2019-03-03T20:50:27.162Z,8.36
2019-03-03T20:52:55.860Z,8.41
2019-03-03T20:55:25.788Z,8.41
2019-03-03T20:57:54.717Z,8.44
2019-03-03T21:00:36.189Z,8.46
2019-03-03T21:03:07.564Z,8.47
2019-03-03T21:05:36.189Z,8.52
2019-03-03T21:08:05.148Z,8.56
2019-03-03T21:10:35.396Z,8.59
2019-03-03T21:13:04.237Z,8.61
2019-03-03T21:15:32.919Z,8.66
2019-03-03T21:18:01.581Z,8.65
2019-03-03T21:20:30.258Z,8.65
2019-03-03T21:22:58.839Z,8.68
2019-03-03T21:25:27.588Z,8.74
2019-03-03T21:27:56.222Z,8.78
2019-03-03T21:30:26.129Z,8.81
2019-03-03T21:32:55.391Z,8.86
2019-03-03T21:35:24.161Z,8.86
2019-03-03T21:37:52.855Z,8.83
2019-03-03T21:40:27.767Z,8.83
2019-03-03T21:42:56.394Z,8.84
2019-03-03T21:45:27.332Z,8.87
2019-03-03T21:47:56.644Z,8.91
2019-03-03T21:50:30.346Z,8.92
2019-03-03T21:52:59.622Z,8.92
2019-03-03T21:55:28.530Z,8.91
2019-03-03T21:57:57.392Z,8.93
2019-03-03T22:00:34.849Z,8.94
2019-03-03T22:03:04.420Z,9.02
2019-03-03T22:05:33.223Z,9.03
2019-03-03T22:08:01.984Z,8.99
2019-03-03T22:10:31.684Z,8.96
2019-03-03T22:13:01.482Z,8.90
2019-03-03T22:15:30.370Z,8.91
2019-03-03T22:17:59.314Z,8.90
2019-03-03T22:20:28.183Z,8.87
2019-03-03T22:22:57.007Z,8.88
2019-03-03T22:25:25.636Z,8.85
2019-03-03T22:27:54.236Z,8.84
2019-03-03T22:30:23.212Z,8.83
2019-03-03T22:32:52.012Z,8.81
2019-03-03T22:35:20.776Z,8.83
2019-03-03T22:37:49.457Z,8.81
2019-03-03T22:40:23.051Z,8.78
2019-03-03T22:42:52.152Z,8.78
2019-03-03T22:45:21.914Z,8.75
2019-03-03T22:47:50.621Z,8.73
2019-03-03T22:50:20.550Z,8.69
2019-03-03T22:52:49.360Z,8.72
2019-03-03T22:55:19.209Z,8.76
2019-03-03T22:57:47.873Z,8.78
2019-03-03T23:00:55.002Z,8.78
2019-03-03T23:03:26.698Z,8.74
2019-03-03T23:06:22.439Z,8.72
2019-03-03T23:09:10.773Z,8.69
2019-03-03T23:12:06.262Z,8.68
2019-03-03T23:14:49.822Z,8.67
2019-03-03T23:17:50.262Z,8.70
2019-03-03T23:20:33.944Z,8.63
2019-03-03T23:23:34.339Z,8.65
2019-03-03T23:26:03.188Z,8.70
2019-03-03T23:28:31.785Z,8.67
2019-03-03T23:31:00.372Z,8.67
2019-03-03T23:33:29.129Z,8.66
2019-03-03T23:35:57.760Z,8.68
2019-03-03T23:38:26.471Z,8.70
2019-03-03T23:40:55.090Z,8.74
2019-03-03T23:43:23.650Z,8.76
2019-03-03T23:45:52.234Z,8.79
2019-03-03T23:48:20.911Z,8.80
2019-03-03T23:50:49.545Z,8.79
2019-03-03T23:53:18.133Z,8.79
2019-03-03T23:55:46.755Z,8.83
2019-03-03T23:58:15.382Z,8.85
